createdAt,value
2018-08-19T00:02:04.231Z,16.80
2018-08-19T00:04:32.093Z,16.60
2018-08-19T00:06:59.986Z,16.50
2018-08-19T00:09:27.794Z,16.40
2018-08-19T00:11:55.556Z,16.30
2018-08-19T00:14:28.417Z,16.20
2018-08-19T00:16:57.795Z,16.10
2018-08-19T00:19:25.920Z,16.10
2018-08-19T00:21:53.802Z,16.00
2018-08-19T00:24:22.644Z,15.90
2018-08-19T00:26:50.473Z,15.80
2018-08-19T00:29:27.007Z,15.80
2018-08-19T00:31:55.533Z,15.80
2018-08-19T00:34:39.034Z,15.60
2018-08-19T00:37:06.839Z,15.60
2018-08-19T00:39:34.881Z,15.60
2018-08-19T00:42:03.521Z,15.60
2018-08-19T00:44:32.027Z,15.60
2018-08-19T00:46:59.832Z,15.60
2018-08-19T00:49:27.641Z,15.60
2018-08-19T00:51:58.413Z,15.50
2018-08-19T00:54:27.880Z,15.40
2018-08-19T00:56:57.874Z,15.40
2018-08-19T00:59:27.429Z,15.40
2018-08-19T01:02:05.425Z,15.40
2018-08-19T01:06:59.409Z,15.40
2018-08-19T01:12:32.357Z,15.30
2018-08-19T01:15:00.176Z,15.30
2018-08-19T01:17:33.602Z,15.30
2018-08-19T01:20:03.352Z,15.40
2018-08-19T01:22:31.223Z,15.40
2018-08-19T01:24:59.159Z,15.40
2018-08-19T01:27:26.982Z,15.40
2018-08-19T01:29:55.754Z,15.40
2018-08-19T01:32:23.605Z,15.40
2018-08-19T01:34:51.581Z,15.40
2018-08-19T01:37:27.244Z,15.40
2018-08-19T01:39:55.117Z,15.30
2018-08-19T01:42:23.023Z,15.20
2018-08-19T01:44:50.884Z,15.30
2018-08-19T01:47:18.761Z,15.30
2018-08-19T01:49:46.593Z,15.30
2018-08-19T01:52:14.525Z,15.30
2018-08-19T01:54:42.379Z,15.30
2018-08-19T01:57:10.269Z,15.40
2018-08-19T01:59:38.161Z,15.40
2018-08-19T02:02:06.768Z,15.40
2018-08-19T02:04:40.873Z,15.40
2018-08-19T02:07:08.751Z,15.50
2018-08-19T02:09:46.689Z,15.50
2018-08-19T02:12:14.647Z,15.50
2018-08-19T02:14:42.588Z,15.60
2018-08-19T02:17:10.470Z,15.70
2018-08-19T02:19:38.354Z,15.70
2018-08-19T02:22:06.463Z,15.70
2018-08-19T02:24:34.355Z,15.80
2018-08-19T02:27:02.320Z,15.80
2018-08-19T02:29:34.343Z,15.90
2018-08-19T02:32:03.468Z,15.90
2018-08-19T02:34:32.546Z,16.00
2018-08-19T02:37:02.815Z,16.00
2018-08-19T02:39:31.110Z,16.00
2018-08-19T02:41:58.928Z,16.00
2018-08-19T02:44:26.702Z,16.10
2018-08-19T02:46:54.465Z,16.10
2018-08-19T02:49:22.234Z,16.10
2018-08-19T02:51:50.974Z,16.10
2018-08-19T02:54:18.787Z,16.10
2018-08-19T02:56:46.572Z,16.20
2018-08-19T02:59:14.313Z,16.20
2018-08-19T03:01:42.105Z,16.20
2018-08-19T03:04:09.899Z,16.30
2018-08-19T03:06:37.738Z,16.30
2018-08-19T03:09:07.452Z,16.30
2018-08-19T03:11:35.260Z,16.30
2018-08-19T03:14:03.413Z,16.40
2018-08-19T03:16:31.766Z,16.40
2018-08-19T03:18:59.578Z,16.40
2018-08-19T03:21:27.338Z,16.50
2018-08-19T03:23:55.198Z,16.40
2018-08-19T03:26:22.946Z,16.40
2018-08-19T03:28:50.763Z,16.40
2018-08-19T03:31:18.554Z,16.50
2018-08-19T03:33:46.324Z,16.50
2018-08-19T03:36:14.067Z,16.50
2018-08-19T03:38:41.809Z,16.50
2018-08-19T03:41:09.536Z,16.40
2018-08-19T03:43:38.364Z,16.50
2018-08-19T03:46:11.782Z,16.50
2018-08-19T03:48:40.534Z,16.50
2018-08-19T03:51:09.293Z,16.60
2018-08-19T03:53:37.018Z,16.60
2018-08-19T03:56:06.329Z,16.60
2018-08-19T03:58:34.182Z,16.60
2018-08-19T04:01:01.982Z,16.60
2018-08-19T04:03:29.718Z,16.60
2018-08-19T04:05:59.426Z,16.60
2018-08-19T04:08:33.369Z,16.60
2018-08-19T04:11:04.204Z,16.60
2018-08-19T04:13:39.550Z,16.60
2018-08-19T04:16:08.405Z,16.70
2018-08-19T04:18:41.203Z,16.60
2018-08-19T04:21:12.887Z,16.70
2018-08-19T04:24:06.510Z,16.70
2018-08-19T04:27:12.681Z,16.70
2018-08-19T04:29:57.121Z,16.70
2018-08-19T04:32:29.833Z,16.70
2018-08-19T04:34:59.106Z,16.70
2018-08-19T04:37:27.082Z,16.70
2018-08-19T04:39:54.835Z,16.70
2018-08-19T04:42:22.745Z,16.70
2018-08-19T04:44:50.561Z,16.70
2018-08-19T04:47:26.828Z,16.70
2018-08-19T04:49:54.734Z,16.70
2018-08-19T04:52:23.558Z,16.80
2018-08-19T04:54:52.399Z,16.80
2018-08-19T04:57:20.449Z,16.80
2018-08-19T04:59:48.428Z,16.80
2018-08-19T05:02:16.341Z,16.80
2018-08-19T05:04:44.082Z,16.80
2018-08-19T05:07:11.931Z,16.80
2018-08-19T05:09:40.809Z,16.90
2018-08-19T05:12:08.670Z,16.90
2018-08-19T05:14:36.436Z,16.90
2018-08-19T05:17:04.237Z,16.90
2018-08-19T05:19:32.113Z,16.90
2018-08-19T05:22:05.264Z,16.90
2018-08-19T05:24:33.060Z,16.90
2018-08-19T05:27:05.980Z,17.00
2018-08-19T05:29:33.821Z,17.00
2018-08-19T05:32:01.591Z,17.00
2018-08-19T05:34:30.715Z,17.00
2018-08-19T05:36:58.752Z,17.10
2018-08-19T05:39:26.560Z,17.10
2018-08-19T05:42:02.512Z,17.10
2018-08-19T05:44:33.743Z,17.10
2018-08-19T05:47:03.914Z,17.20
2018-08-19T05:49:32.326Z,17.20
2018-08-19T05:52:04.741Z,17.30
2018-08-19T05:54:36.907Z,17.30
2018-08-19T05:57:05.335Z,17.40
2018-08-19T05:59:33.714Z,17.40
2018-08-19T06:02:01.611Z,17.50
2018-08-19T06:04:29.357Z,17.60
2018-08-19T06:07:01.779Z,17.60
2018-08-19T06:09:29.488Z,17.70
2018-08-19T06:11:57.270Z,17.60
2018-08-19T06:14:24.998Z,17.70
2018-08-19T06:16:52.789Z,17.80
2018-08-19T06:19:20.591Z,17.80
2018-08-19T06:21:49.047Z,17.80
2018-08-19T06:24:16.970Z,17.80
2018-08-19T06:26:44.870Z,17.90
2018-08-19T06:29:12.645Z,17.90
2018-08-19T06:31:40.433Z,18.00
2018-08-19T06:34:08.201Z,18.00
2018-08-19T06:36:36.001Z,18.00
2018-08-19T06:39:05.536Z,18.10
2018-08-19T06:41:33.287Z,18.20
2018-08-19T06:44:01.079Z,18.30
2018-08-19T06:46:28.903Z,18.30
2018-08-19T06:48:57.524Z,18.40
2018-08-19T06:51:25.274Z,18.50
2018-08-19T06:53:53.145Z,18.50
2018-08-19T06:56:20.917Z,18.40
2018-08-19T06:58:48.771Z,18.60
2018-08-19T07:06:16.678Z,18.70
2018-08-19T07:08:44.459Z,18.60
2018-08-19T07:11:12.238Z,18.50
2018-08-19T07:13:40.012Z,18.60
2018-08-19T07:16:08.382Z,18.60
2018-08-19T07:18:36.225Z,18.60
2018-08-19T07:21:19.085Z,18.60
2018-08-19T07:24:00.098Z,18.60
2018-08-19T07:26:58.608Z,18.70
2018-08-19T07:31:56.509Z,18.90
2018-08-19T07:34:24.428Z,18.90
2018-08-19T07:36:53.300Z,18.90
2018-08-19T07:39:21.149Z,18.90
2018-08-19T07:41:48.997Z,18.90
2018-08-19T07:44:16.867Z,18.90
2018-08-19T07:46:45.316Z,19.00
2018-08-19T07:49:13.157Z,19.00
2018-08-19T07:51:41.037Z,19.20
2018-08-19T07:54:08.965Z,19.20
2018-08-19T08:37:01.501Z,20.30
2018-08-19T08:39:29.969Z,20.30
2018-08-19T08:41:58.341Z,20.10
2018-08-19T08:44:27.570Z,20.10
2018-08-19T08:46:55.923Z,20.30
2018-08-19T08:49:24.346Z,20.40
2018-08-19T08:51:52.112Z,20.30
2018-08-19T08:54:19.869Z,20.50
2018-08-19T08:56:47.652Z,20.90
2018-08-19T08:59:15.407Z,21.10
2018-08-19T09:01:43.340Z,21.30
2018-08-19T09:04:12.098Z,21.30
2018-08-19T09:06:40.915Z,21.40
2018-08-19T09:09:08.729Z,21.40
2018-08-19T09:11:36.568Z,21.60
2018-08-19T09:14:04.362Z,22.00
2018-08-19T09:16:32.195Z,22.50
2018-08-19T09:18:59.985Z,22.70
2018-08-19T09:21:27.775Z,22.90
2018-08-19T09:23:55.555Z,22.90
2018-08-19T09:26:23.354Z,22.80
2018-08-19T09:28:51.150Z,22.70
2018-08-19T09:31:18.967Z,22.40
2018-08-19T09:33:46.731Z,22.20
2018-08-19T09:36:15.484Z,22.40
2018-08-19T09:38:43.342Z,23.20
2018-08-19T09:41:11.213Z,23.20
2018-08-19T09:43:38.995Z,23.10
2018-08-19T09:46:06.811Z,22.90
2018-08-19T09:48:34.592Z,22.60
2018-08-19T09:51:08.042Z,22.70
2018-08-19T09:53:43.492Z,23.00
2018-08-19T09:56:11.553Z,23.50
2018-08-19T09:58:40.664Z,23.50
2018-08-19T10:01:18.970Z,23.10
2018-08-19T10:03:46.867Z,22.90
2018-08-19T10:06:15.634Z,22.30
2018-08-19T10:08:43.431Z,22.00
2018-08-19T10:11:11.254Z,22.10
2018-08-19T10:13:39.053Z,22.20
2018-08-19T10:16:07.918Z,22.00
2018-08-19T10:18:35.740Z,22.10
2018-08-19T10:21:08.047Z,22.10
2018-08-19T10:23:35.943Z,22.10
2018-08-19T10:26:03.776Z,22.30
2018-08-19T10:28:31.573Z,22.50
2018-08-19T10:31:00.475Z,22.40
2018-08-19T10:33:28.254Z,22.30
2018-08-19T10:35:57.511Z,22.10
2018-08-19T10:38:25.271Z,22.30
2018-08-19T10:41:05.576Z,22.30
2018-08-19T10:43:33.436Z,22.30
2018-08-19T10:46:02.252Z,22.40
2018-08-19T10:48:30.243Z,22.40
2018-08-19T10:51:01.689Z,22.70
2018-08-19T10:53:29.752Z,22.90
2018-08-19T10:55:58.451Z,22.70
2018-08-19T10:58:26.425Z,22.90
2018-08-19T11:00:54.355Z,22.90
2018-08-19T11:03:22.249Z,22.50
2018-08-19T11:05:53.832Z,22.60
2018-08-19T11:08:21.809Z,22.60
2018-08-19T11:10:49.785Z,23.00
2018-08-19T11:13:21.300Z,23.40
2018-08-19T11:15:57.129Z,23.60
2018-08-19T11:18:41.454Z,23.60
2018-08-19T11:21:13.244Z,23.50
2018-08-19T11:23:42.671Z,23.10
2018-08-19T11:26:10.963Z,23.10
2018-08-19T11:28:43.187Z,23.20
2018-08-19T11:31:18.706Z,23.40
2018-08-19T11:33:46.787Z,23.80
2018-08-19T11:36:14.742Z,23.90
2018-08-19T11:38:47.142Z,23.70
2018-08-19T11:41:16.446Z,23.60
2018-08-19T11:48:42.458Z,24.50
2018-08-19T11:51:41.934Z,24.30
2018-08-19T11:54:11.126Z,24.00
2018-08-19T11:59:06.799Z,24.80
2018-08-19T12:01:34.732Z,25.30
2018-08-19T12:04:10.778Z,25.60
2018-08-19T12:06:38.597Z,25.20
2018-08-19T12:09:08.675Z,25.40
2018-08-19T12:11:37.827Z,25.30
2018-08-19T12:14:08.377Z,25.00
2018-08-19T12:16:42.828Z,25.20
2018-08-19T12:19:16.338Z,25.20
2018-08-19T12:21:49.943Z,25.60
2018-08-19T12:24:20.804Z,25.60
2018-08-19T12:26:48.565Z,25.70
2018-08-19T12:29:16.324Z,25.60
2018-08-19T12:31:45.368Z,25.30
2018-08-19T12:34:13.321Z,25.60
2018-08-19T12:36:41.187Z,25.50
2018-08-19T12:39:09.606Z,25.50
2018-08-19T12:41:51.580Z,25.10
2018-08-19T12:44:19.465Z,25.20
2018-08-19T12:49:27.136Z,25.80
2018-08-19T12:51:55.383Z,26.00
2018-08-19T12:54:23.184Z,26.20
2018-08-19T12:56:51.059Z,26.20
2018-08-19T12:59:18.909Z,26.30
2018-08-19T13:01:46.700Z,26.60
2018-08-19T13:04:14.656Z,26.10
2018-08-19T13:07:14.384Z,26.60
2018-08-19T13:09:42.280Z,26.80
2018-08-19T13:12:11.485Z,26.40
2018-08-19T13:14:39.332Z,26.50
2018-08-19T13:17:20.109Z,26.60
2018-08-19T13:20:06.928Z,26.80
2018-08-19T13:25:38.528Z,26.70
2018-08-19T13:28:06.588Z,26.40
2018-08-19T13:30:34.464Z,26.50
2018-08-19T13:33:02.437Z,26.10
2018-08-19T13:35:30.414Z,25.70
2018-08-19T13:37:58.257Z,25.60
2018-08-19T13:40:26.041Z,26.10
2018-08-19T13:42:54.874Z,26.50
2018-08-19T13:45:25.073Z,26.50
2018-08-19T13:47:53.763Z,25.40
2018-08-19T13:53:25.016Z,26.00
2018-08-19T13:55:52.993Z,26.30
2018-08-19T13:58:20.823Z,26.80
2018-08-19T14:00:48.649Z,26.90
2018-08-19T14:03:16.415Z,26.30
2018-08-19T14:05:45.265Z,25.80
2018-08-19T14:08:23.779Z,25.70
2018-08-19T14:10:51.568Z,25.30
2018-08-19T14:13:19.397Z,25.40
2018-08-19T14:18:14.920Z,26.50
2018-08-19T14:20:42.694Z,26.20
2018-08-19T14:23:10.543Z,25.90
2018-08-19T14:25:38.399Z,25.30
2018-08-19T14:28:06.213Z,25.10
2018-08-19T14:30:34.089Z,25.00
2018-08-19T14:33:01.832Z,25.00
2018-08-19T14:35:29.686Z,25.30
2018-08-19T14:37:57.526Z,25.10
2018-08-19T14:40:25.453Z,25.10
2018-08-19T14:42:53.235Z,25.00
2018-08-19T14:45:21.112Z,24.70
2018-08-19T14:47:48.912Z,24.60
2018-08-19T14:50:19.086Z,24.60
2018-08-19T14:52:47.003Z,24.60
2018-08-19T14:55:14.881Z,24.60
2018-08-19T14:57:42.787Z,24.70
2018-08-19T15:00:13.186Z,24.70
2018-08-19T15:02:41.100Z,24.60
2018-08-19T15:05:12.487Z,24.60
2018-08-19T15:07:40.531Z,24.70
2018-08-19T15:10:08.413Z,24.90
2018-08-19T15:12:36.228Z,24.90
2018-08-19T15:15:04.112Z,24.80
2018-08-19T15:17:31.911Z,24.50
2018-08-19T15:19:59.672Z,24.50
2018-08-19T15:22:27.439Z,24.50
2018-08-19T15:24:55.187Z,24.70
2018-08-19T15:27:24.056Z,24.50
2018-08-19T15:29:53.273Z,24.50
2018-08-19T15:32:23.307Z,24.40
2018-08-19T15:34:50.945Z,24.30
2018-08-19T15:44:29.666Z,24.70
2018-08-19T15:46:57.704Z,24.60
2018-08-19T15:52:15.478Z,24.20
2018-08-19T15:54:47.859Z,24.20
2018-08-19T15:57:39.319Z,24.20
2018-08-19T16:00:08.186Z,24.20
2018-08-19T16:02:36.015Z,24.20
2018-08-19T16:05:08.868Z,24.10
2018-08-19T16:07:36.736Z,24.00
2018-08-19T16:10:04.793Z,24.00
2018-08-19T16:12:32.725Z,24.00
2018-08-19T16:15:00.704Z,24.20
2018-08-19T16:17:28.517Z,24.10
2018-08-19T16:19:56.278Z,24.10
2018-08-19T16:22:24.078Z,24.10
2018-08-19T16:24:51.932Z,24.00
2018-08-19T16:27:19.747Z,23.90
2018-08-19T16:29:47.691Z,23.90
2018-08-19T16:32:15.531Z,23.90
2018-08-19T16:34:43.404Z,23.90
2018-08-19T16:37:11.256Z,23.80
2018-08-19T16:39:39.103Z,23.60
2018-08-19T16:42:06.963Z,23.60
2018-08-19T16:44:42.169Z,23.70
2018-08-19T16:47:10.004Z,23.70
2018-08-19T16:49:37.769Z,23.70
2018-08-19T16:52:05.568Z,23.70
2018-08-19T16:54:33.357Z,23.50
2018-08-19T16:57:01.235Z,23.50
2018-08-19T16:59:28.938Z,23.50
2018-08-19T17:01:56.783Z,23.40
2018-08-19T17:04:24.599Z,23.40
2018-08-19T17:06:52.357Z,23.30
2018-08-19T17:09:20.101Z,23.30
2018-08-19T17:11:47.910Z,23.10
2018-08-19T17:14:17.442Z,23.10
2018-08-19T17:16:45.502Z,23.10
2018-08-19T17:19:13.387Z,23.00
2018-08-19T17:21:41.327Z,22.90
2018-08-19T17:24:09.250Z,22.90
2018-08-19T17:26:37.169Z,22.80
2018-08-19T17:29:10.881Z,22.80
2018-08-19T17:31:38.820Z,22.70
2018-08-19T17:34:11.229Z,22.60
2018-08-19T17:36:39.368Z,22.60
2018-08-19T17:39:12.911Z,22.50
2018-08-19T17:41:40.750Z,22.40
2018-08-19T17:44:09.615Z,22.30
2018-08-19T17:46:38.236Z,22.30
2018-08-19T17:49:09.502Z,22.10
2018-08-19T17:51:37.340Z,22.00
2018-08-19T17:54:13.624Z,22.00
2018-08-19T17:56:41.539Z,21.80
2018-08-19T17:59:09.452Z,21.60
2018-08-19T18:01:40.272Z,21.60
2018-08-19T18:04:08.116Z,21.50
2018-08-19T18:06:36.085Z,21.50
2018-08-19T18:09:06.451Z,21.40
2018-08-19T18:11:34.224Z,21.40
2018-08-19T18:14:02.029Z,21.40
2018-08-19T18:16:29.979Z,21.30
2018-08-19T18:18:59.265Z,21.20
2018-08-19T18:21:27.682Z,21.00
2018-08-19T18:23:55.516Z,20.90
2018-08-19T18:26:50.046Z,20.90
2018-08-19T18:29:17.954Z,20.80
2018-08-19T18:31:48.530Z,20.80
2018-08-19T18:34:16.402Z,20.80
2018-08-19T18:36:45.866Z,20.80
2018-08-19T18:39:13.722Z,20.70
2018-08-19T18:41:51.903Z,20.70
2018-08-19T18:44:19.725Z,20.70
2018-08-19T18:46:48.552Z,20.70
2018-08-19T18:49:16.412Z,20.70
2018-08-19T18:51:47.999Z,20.70
2018-08-19T18:54:21.601Z,20.70
2018-08-19T18:56:49.476Z,20.70
2018-08-19T18:59:17.293Z,20.60
2018-08-19T19:01:45.116Z,20.60
2018-08-19T19:04:12.887Z,20.60
2018-08-19T19:06:40.655Z,20.50
2018-08-19T19:09:08.794Z,20.60
2018-08-19T19:11:36.703Z,20.50
2018-08-19T19:14:14.895Z,20.50
2018-08-19T19:17:23.238Z,20.30
2018-08-19T19:19:51.302Z,20.20
2018-08-19T19:22:19.141Z,20.00
2018-08-19T19:24:47.211Z,19.90
2018-08-19T19:27:15.176Z,19.70
2018-08-19T19:29:44.184Z,19.60
2018-08-19T19:32:15.838Z,19.40
2018-08-19T19:34:43.739Z,19.40
2018-08-19T19:37:11.883Z,19.40
2018-08-19T19:39:39.821Z,19.40
2018-08-19T19:42:09.356Z,19.40
2018-08-19T19:44:38.380Z,19.30
2018-08-19T19:47:08.223Z,19.30
2018-08-19T19:49:43.958Z,19.20
2018-08-19T19:52:12.629Z,19.20
2018-08-19T19:54:40.642Z,19.20
2018-08-19T19:57:08.535Z,19.20
2018-08-19T19:59:36.475Z,19.10
2018-08-19T20:02:04.456Z,19.00
2018-08-19T20:04:35.344Z,18.90
2018-08-19T20:07:03.334Z,18.90
2018-08-19T20:09:34.039Z,18.80
2018-08-19T20:12:02.029Z,18.80
2018-08-19T20:14:30.006Z,18.90
2018-08-19T20:16:57.904Z,18.90
2018-08-19T20:19:25.749Z,18.90
2018-08-19T20:21:53.553Z,18.90
2018-08-19T20:24:21.272Z,18.90
2018-08-19T20:26:49.201Z,19.00
2018-08-19T20:29:17.020Z,19.00
2018-08-19T20:31:44.866Z,18.90
2018-08-19T20:34:34.739Z,18.90
2018-08-19T20:39:27.972Z,18.80
2018-08-19T20:41:55.755Z,18.80
2018-08-19T20:44:23.525Z,18.90
2018-08-19T20:46:55.822Z,19.00
2018-08-19T20:49:24.255Z,19.00
2018-08-19T20:51:52.434Z,19.10
2018-08-19T20:54:20.286Z,19.00
2018-08-19T20:56:48.118Z,19.00
2018-08-19T20:59:20.605Z,19.10
2018-08-19T21:01:48.979Z,19.10
2018-08-19T21:04:17.046Z,19.10
2018-08-19T21:06:45.323Z,19.20
2018-08-19T21:09:13.167Z,19.20
2018-08-19T21:11:41.005Z,19.20
2018-08-19T21:14:08.804Z,19.30
2018-08-19T21:16:36.558Z,19.30
2018-08-19T21:19:04.458Z,19.30
2018-08-19T21:21:32.288Z,19.30
2018-08-19T21:24:00.292Z,19.30
2018-08-19T21:26:28.152Z,19.30
2018-08-19T21:29:01.976Z,19.20
2018-08-19T21:31:30.154Z,19.30
2018-08-19T21:33:57.961Z,19.30
2018-08-19T21:36:25.817Z,19.30
2018-08-19T21:38:53.599Z,19.30
2018-08-19T21:41:23.141Z,19.30
2018-08-19T21:43:51.044Z,19.40
2018-08-19T21:46:18.783Z,19.40
2018-08-19T21:48:47.563Z,19.40
2018-08-19T21:51:15.363Z,19.40
2018-08-19T21:53:43.142Z,19.40
2018-08-19T21:56:10.965Z,19.40
2018-08-19T21:58:38.849Z,19.50
2018-08-19T22:01:12.475Z,19.40
2018-08-19T22:03:45.939Z,19.50
2018-08-19T22:06:14.851Z,19.50
2018-08-19T22:08:42.786Z,19.50
2018-08-19T22:11:24.046Z,19.50
2018-08-19T22:13:52.060Z,19.50
2018-08-19T22:16:19.904Z,19.50
2018-08-19T22:18:47.738Z,19.50
2018-08-19T22:21:19.350Z,19.40
2018-08-19T22:23:48.264Z,19.40
2018-08-19T22:26:18.125Z,19.50
2018-08-19T22:28:52.771Z,19.40
2018-08-19T22:31:42.445Z,19.40
2018-08-19T22:34:10.388Z,19.40
2018-08-19T22:36:38.459Z,19.40
2018-08-19T22:39:43.877Z,19.40
2018-08-19T22:42:11.683Z,19.40
2018-08-19T22:44:39.479Z,19.40
2018-08-19T22:47:07.284Z,19.40
2018-08-19T22:49:36.080Z,19.30
2018-08-19T22:52:21.143Z,19.40
2018-08-19T22:54:54.353Z,19.40
2018-08-19T22:57:22.196Z,19.40
2018-08-19T22:59:51.159Z,19.50
2018-08-19T23:02:19.019Z,19.40
2018-08-19T23:04:47.053Z,19.40
2018-08-19T23:07:15.973Z,19.40
2018-08-19T23:09:43.772Z,19.40
2018-08-19T23:12:18.615Z,19.40
2018-08-19T23:14:57.698Z,19.40
2018-08-19T23:17:25.643Z,19.40
2018-08-19T23:19:53.631Z,19.40
2018-08-19T23:22:21.512Z,19.40
2018-08-19T23:24:49.384Z,19.40
2018-08-19T23:27:17.282Z,19.40
2018-08-19T23:29:45.175Z,19.40
2018-08-19T23:32:13.076Z,19.40
2018-08-19T23:34:40.932Z,19.40
2018-08-19T23:37:08.796Z,19.40
2018-08-19T23:39:36.745Z,19.40
2018-08-19T23:42:04.653Z,19.40
2018-08-19T23:44:32.550Z,19.40
2018-08-19T23:47:00.401Z,19.40
2018-08-19T23:49:28.332Z,19.40
2018-08-19T23:51:56.294Z,19.40
2018-08-19T23:54:24.182Z,19.40
2018-08-19T23:56:52.059Z,19.40
2018-08-19T23:59:26.429Z,19.40
